Terminal Aerodrome Forecast
Issued by NWS Lubbock, TX

Home | Current Version | Previous Version | Text Only | Print | Product List | Glossary On
Versions: 1 2 3 4 5 6 7 8 9 10 11 12 13 14 15 16 17 18 19 20 21 22 23 24 25 26 27 28
000
FTUS44 KLUB 060520
TAFLBB
TAF
KLBB 060520Z 0606/0706 16010KT P6SM SCT010 BKN200
     FM060800 18012KT P6SM OVC010
     FM061600 20018G26KT P6SM SCT035 SCT090=

USA.gov is the U.S. government's official web portal to all federal, state and local government web resources and services.